Lyndonville, VT

5:33 AM EST on January 24, 2018 (GMT -0500)
Lyndonville

Weather History for KCDA - January, 2013

Change the Weather History Date:

Wednesday, January 30, 2013

  Actual Average (K1V4) Record (K1V4)
Temperature  
Mean Temperature 40 °F -  
Max Temperature 49 °F 25 °F 50 °F (1906)
Min Temperature 31 °F 4 °F -30 °F (1915)
Degree Days  
Heating Degree Days 25    
Moisture  
Dew Point 38 °F    
Average Humidity 91    
Maximum Humidity 93    
Minimum Humidity 90    
Precipitation  
Precipitation 0.00 in - - ()
Sea Level Pressure  
Sea Level Pressure 29.64 in    
Wind  
Wind Speed 9 mph (SSE)    
Max Wind Speed 15 mph    
Max Gust Speed 21 mph    
Visibility 2 miles    
Events Fog , Rain    
Averages and records for this station are not official NWS values.
T = Trace of Precipitation, MM = Missing Value Source: NWS Daily Summary

Daily Weather History Graph

Daily Weather History Graph

Search for Another Location

Airport or City:

Trip Planner

Search our weather history database for the weather conditions in past years. The results will help you decide how hot, cold, wet, or windy it might be!

Date:

Astronomy

Jan. 30, 2013 Rise Set
Actual Time 7:08 AM EST 4:54 PM EST
Civil Twilight 6:37 AM EST 5:25 PM EST
Nautical Twilight 6:02 AM EST 6:00 PM EST
Astronomical Twilight 5:28 AM EST 6:35 PM EST
Moon 9:02 PM EST (1/30) 8:24 AM EST (1/30)
Length of Visible Light 10h 48m
Length of Day
9h 45m
Waning Gibbous, 88% of the Moon is Illuminated
Jan 30
Waning Gibbous
Feb 3
Last Quarter
Feb 10
New
Feb 17
First Quarter
Feb 25
Full

Hourly Weather History & Observations

Time (EST) Temp. Windchill Dew Point Humidity Pressure Visibility Wind Dir Wind Speed Gust Speed Precip Events Conditions
12:15 AM 31.6 °F 23.7 °F 29.3 °F 91% 30.01 in 3.0 mi South 9.2 mph - N/A   Overcast
12:35 AM 31.6 °F 23.7 °F 29.3 °F 91% 30.00 in 3.0 mi South 9.2 mph - N/A   Overcast
1:15 AM 32.0 °F 23.0 °F 30.0 °F 92% 29.97 in 5.0 mi South 11.5 mph 17.3 mph N/A   Overcast
1:35 AM 32.5 °F 24.8 °F 30.4 °F 92% 29.97 in 3.0 mi South 9.2 mph 18.4 mph N/A Rain Light Rain
1:55 AM 32.7 °F 25.7 °F 30.7 °F 92% 29.97 in 3.0 mi South 8.1 mph - N/A Rain Rain
2:15 AM 32.9 °F 24.1 °F 30.6 °F 91% 29.95 in 5.0 mi South 11.5 mph 17.3 mph N/A Rain Light Rain
2:35 AM 32.9 °F 23.7 °F 30.7 °F 92% 29.95 in 7.0 mi South 12.7 mph - N/A Rain Rain
2:55 AM 33.1 °F 24.9 °F 30.9 °F 92% 29.93 in 4.0 mi South 10.4 mph - N/A Rain Light Rain
3:15 AM 32.9 °F 25.3 °F 30.9 °F 92% 29.92 in 10.0 mi South 9.2 mph - N/A Rain Light Rain
3:35 AM 33.1 °F 26.1 °F 30.9 °F 92% 29.91 in 10.0 mi South 8.1 mph - N/A   Overcast
3:55 AM 33.3 °F 27.1 °F 30.9 °F 91% 29.89 in 7.0 mi South 6.9 mph - N/A Rain Light Rain
4:15 AM 33.3 °F 26.4 °F 30.9 °F 91% 29.89 in 7.0 mi South 8.1 mph - N/A Rain Light Rain
4:35 AM 33.3 °F 25.7 °F 31.1 °F 92% 29.89 in 10.0 mi SSE 9.2 mph - N/A Rain Light Rain
4:55 AM 33.3 °F 25.1 °F 31.1 °F 92% 29.88 in 7.0 mi SSE 10.4 mph - N/A Rain Light Rain
5:15 AM 33.3 °F 25.1 °F 31.1 °F 92% 29.86 in 7.0 mi SSE 10.4 mph - N/A Rain Light Rain
5:35 AM 33.3 °F 27.1 °F 31.5 °F 93% 29.85 in 10.0 mi SSE 6.9 mph - N/A   Overcast
5:55 AM 33.4 °F 25.4 °F 31.6 °F 93% 29.84 in 5.0 mi SSE 10.4 mph - N/A   Overcast
6:15 AM 33.8 °F 26.4 °F 32.0 °F 93% 29.83 in 1.5 mi SSE 9.2 mph - N/A   Overcast
6:35 AM 34.0 °F 26.6 °F 32.0 °F 92% 29.83 in 1.0 mi South 9.2 mph - N/A   Overcast
6:55 AM 34.2 °F 26.8 °F 32.0 °F 92% 29.82 in 1.0 mi South 9.2 mph - N/A   Overcast
7:15 AM 34.7 °F 28.8 °F 32.5 °F 92% 29.80 in 0.5 mi SSE 6.9 mph - N/A Rain Light Rain
7:35 AM 35.1 °F 26.4 °F 32.9 °F 92% 29.79 in 1.0 mi SSE 12.7 mph 17.3 mph N/A   Overcast
7:55 AM 35.6 °F 27.1 °F 33.4 °F 92% 29.79 in 0.2 mi SSE 12.7 mph 18.4 mph N/A Fog Fog
8:15 AM 35.8 °F 29.4 °F 33.8 °F 92% 29.78 in 0.2 mi SSE 8.1 mph - N/A Fog Fog
8:35 AM 36.0 °F 29.0 °F 33.8 °F 92% 29.77 in 0.2 mi SSE 9.2 mph - N/A Fog Fog
8:55 AM 36.1 °F 29.9 °F 34.0 °F 92% 29.76 in 0.2 mi SSE 8.1 mph - N/A Fog Fog
9:15 AM 36.5 °F 29.2 °F 34.3 °F 92% 29.74 in 0.2 mi SSE 10.4 mph - N/A Fog Fog
9:35 AM 36.9 °F 29.1 °F 34.7 °F 92% 29.72 in 0.2 mi SSE 11.5 mph 17.3 mph N/A Fog Fog
9:55 AM 37.0 °F 28.9 °F 34.9 °F 92% 29.70 in 0.2 mi South 12.7 mph 19.6 mph N/A Fog Fog
10:15 AM 37.6 °F 29.6 °F 35.6 °F 93% 29.69 in 0.2 mi South 12.7 mph - N/A Fog Fog
10:35 AM 37.9 °F 30.5 °F 35.8 °F 92% 29.69 in 0.2 mi South 11.5 mph 17.3 mph N/A Fog Fog
10:55 AM 38.7 °F 33.6 °F 36.5 °F 92% 29.68 in 0.2 mi SSE 6.9 mph - N/A Fog Fog
11:15 AM 38.7 °F 32.9 °F 36.5 °F 92% 29.66 in 0.2 mi SSE 8.1 mph - N/A Fog Fog
11:35 AM 39.4 °F 34.5 °F 37.2 °F 92% 29.63 in 0.2 mi SE 6.9 mph - N/A Fog Fog
11:55 AM 39.6 °F 33.5 °F 37.4 °F 92% 29.63 in 0.2 mi SSE 9.2 mph - N/A Fog Fog
12:15 PM 39.9 °F 33.9 °F 37.6 °F 91% 29.62 in 0.2 mi SSE 9.2 mph - N/A Fog Fog
12:35 PM 40.3 °F 33.4 °F 37.9 °F 91% 29.59 in 0.2 mi SSE 11.5 mph 17.3 mph N/A Fog Fog
12:55 PM 40.5 °F 35.1 °F 38.3 °F 92% 29.57 in 0.2 mi South 8.1 mph 16.1 mph N/A Fog Fog
1:15 PM 41.2 °F 34.5 °F 39.0 °F 92% 29.54 in 0.2 mi South 11.5 mph - N/A Fog Fog
1:35 PM 41.4 °F 35.2 °F 39.0 °F 91% 29.53 in 0.2 mi South 10.4 mph - N/A Fog Fog
1:55 PM 41.5 °F 35.4 °F 39.2 °F 91% 29.53 in 0.2 mi SSE 10.4 mph - N/A Fog Fog
2:15 PM 42.1 °F 37.1 °F 39.6 °F 91% 29.51 in 0.2 mi South 8.1 mph - N/A Fog Fog
2:35 PM 42.1 °F 36.1 °F 39.6 °F 91% 29.51 in 0.2 mi South 10.4 mph - N/A Fog Fog
2:55 PM 42.6 °F 37.8 °F 40.1 °F 91% 29.50 in 0.2 mi South 8.1 mph - N/A   Light Drizzle
3:15 PM 42.8 °F 38.6 °F 40.1 °F 90% 29.49 in 0.2 mi SSE 6.9 mph - N/A Fog Fog
3:35 PM 43.0 °F 37.7 °F 40.5 °F 91% 29.49 in 0.2 mi South 9.2 mph - N/A Rain Rain
3:55 PM 43.7 °F 38.1 °F 41.2 °F 91% 29.49 in 0.5 mi South 10.4 mph - N/A   Drizzle
4:15 PM 43.7 °F 37.7 °F 41.2 °F 91% 29.48 in 0.5 mi South 11.5 mph - N/A   Drizzle
4:35 PM 43.9 °F 37.2 °F 41.4 °F 91% 29.46 in 0.5 mi South 13.8 mph 19.6 mph N/A Rain Light Rain
4:55 PM 43.9 °F 38.3 °F 41.4 °F 91% 29.44 in 0.2 mi South 10.4 mph 19.6 mph N/A Fog Fog
5:15 PM 44.6 °F 38.8 °F 42.1 °F 91% 29.45 in 0.2 mi South 11.5 mph - N/A Rain Light Rain
5:35 PM 45.5 °F 41.3 °F 42.8 °F 90% 29.46 in 0.8 mi South 8.1 mph 16.1 mph N/A Rain Light Rain
5:55 PM 45.7 °F - 43.2 °F 91% 29.47 in 1.5 mi Calm Calm - N/A Rain Light Rain
6:15 PM 46.0 °F 43.1 °F 43.5 °F 91% 29.46 in 2.0 mi SE 5.8 mph - N/A   Light Drizzle
6:35 PM 45.3 °F 43.0 °F 43.0 °F 92% 29.46 in 0.2 mi SE 4.6 mph - N/A Rain Rain
6:55 PM 45.5 °F 41.3 °F 42.8 °F 90% 29.46 in 0.2 mi SE 8.1 mph - N/A Rain Light Rain
7:15 PM 46.6 °F - 43.9 °F 90% 29.44 in 0.2 mi South 12.7 mph 19.6 mph N/A   Drizzle
7:35 PM 46.9 °F - 44.4 °F 91% 29.42 in 0.2 mi SSE 10.4 mph 19.6 mph N/A Rain Rain
7:55 PM 47.3 °F - 45.0 °F 92% 29.46 in 0.2 mi Calm Calm - N/A Rain Rain
8:15 PM 46.6 °F - 44.1 °F 91% 29.46 in 0.2 mi Calm Calm - N/A Rain Light Rain
8:35 PM 47.3 °F - 44.8 °F 91% 29.43 in 0.2 mi SE 6.9 mph - N/A Rain Light Rain
8:55 PM 47.5 °F - 45.0 °F 91% 29.42 in 0.2 mi SSE 6.9 mph - N/A   Light Drizzle
9:15 PM 48.0 °F - 45.5 °F 91% 29.42 in 0.2 mi SSE 8.1 mph - N/A Rain Light Rain
9:35 PM 48.2 °F - 45.7 °F 91% 29.41 in 0.2 mi SSE 10.4 mph 17.3 mph N/A Rain Light Rain
9:55 PM 48.7 °F - 46.2 °F 91% 29.39 in 0.2 mi SSE 13.8 mph 19.6 mph N/A Rain Rain
10:15 PM 49.1 °F - 46.6 °F 91% 29.39 in 0.2 mi South 10.4 mph - N/A Rain Light Rain
10:35 PM 49.1 °F - 46.6 °F 91% 29.38 in 0.8 mi SSE 9.2 mph 16.1 mph N/A Rain Light Rain
10:55 PM 49.1 °F - 46.6 °F 91% 29.37 in 1.2 mi South 8.1 mph - N/A Rain Rain
11:15 PM 49.1 °F - 46.6 °F 91% 29.36 in 2.5 mi South 10.4 mph - N/A Rain Rain
11:35 PM 49.3 °F - 46.8 °F 91% 29.34 in 5.0 mi SSE 9.2 mph - N/A Rain Light Rain
11:55 PM 49.6 °F - 47.3 °F 92% 29.34 in 3.0 mi South 15.0 mph 20.7 mph N/A Rain Rain